sensor_id;sensor_type;location;lat;lon;timestamp;P1;durP1;ratioP1;P2;durP2;ratioP2
54332;SDS011;40230;41.860;21.940;2022-08-19T00:01:10;7.22;;;5.95;;
54332;SDS011;40230;41.860;21.940;2022-08-19T00:03:36;8.77;;;5.90;;
54332;SDS011;40230;41.860;21.940;2022-08-19T00:06:03;6.93;;;6.15;;
54332;SDS011;40230;41.860;21.940;2022-08-19T00:08:29;20.52;;;6.32;;
54332;SDS011;40230;41.860;21.940;2022-08-19T00:10:56;9.45;;;5.88;;
54332;SDS011;40230;41.860;21.940;2022-08-19T00:13:22;7.00;;;5.65;;
54332;SDS011;40230;41.860;21.940;2022-08-19T00:15:48;6.50;;;5.50;;
54332;SDS011;40230;41.860;21.940;2022-08-19T00:18:14;7.53;;;6.03;;
54332;SDS011;40230;41.860;21.940;2022-08-19T00:20:40;7.45;;;6.13;;
54332;SDS011;40230;41.860;21.940;2022-08-19T00:23:07;13.88;;;6.78;;
54332;SDS011;40230;41.860;21.940;2022-08-19T00:25:33;6.88;;;6.10;;
54332;SDS011;40230;41.860;21.940;2022-08-19T00:27:59;7.95;;;5.78;;
54332;SDS011;40230;41.860;21.940;2022-08-19T00:30:25;8.57;;;5.78;;
54332;SDS011;40230;41.860;21.940;2022-08-19T00:32:54;7.85;;;6.15;;
54332;SDS011;40230;41.860;21.940;2022-08-19T00:35:21;9.38;;;6.55;;
54332;SDS011;40230;41.860;21.940;2022-08-19T00:37:47;8.95;;;5.95;;
54332;SDS011;40230;41.860;21.940;2022-08-19T00:40:14;7.70;;;5.25;;
54332;SDS011;40230;41.860;21.940;2022-08-19T00:42:40;8.48;;;6.13;;
54332;SDS011;40230;41.860;21.940;2022-08-19T00:45:14;6.57;;;5.95;;
54332;SDS011;40230;41.860;21.940;2022-08-19T00:47:41;7.18;;;5.80;;
54332;SDS011;40230;41.860;21.940;2022-08-19T00:50:08;6.78;;;5.97;;
54332;SDS011;40230;41.860;21.940;2022-08-19T00:52:35;7.72;;;5.95;;
54332;SDS011;40230;41.860;21.940;2022-08-19T00:55:03;6.32;;;5.65;;
54332;SDS011;40230;41.860;21.940;2022-08-19T00:57:31;5.95;;;5.45;;
54332;SDS011;40230;41.860;21.940;2022-08-19T00:59:58;9.23;;;7.68;;
54332;SDS011;40230;41.860;21.940;2022-08-19T01:02:25;31.63;;;28.23;;
54332;SDS011;40230;41.860;21.940;2022-08-19T01:04:52;9.82;;;6.90;;
54332;SDS011;40230;41.860;21.940;2022-08-19T01:07:18;10.60;;;6.55;;
54332;SDS011;40230;41.860;21.940;2022-08-19T01:09:44;9.00;;;6.22;;
54332;SDS011;40230;41.860;21.940;2022-08-19T01:12:10;15.57;;;13.55;;
54332;SDS011;40230;41.860;21.940;2022-08-19T01:14:37;14.93;;;11.88;;
54332;SDS011;40230;41.860;21.940;2022-08-19T01:17:04;7.57;;;6.13;;
54332;SDS011;40230;41.860;21.940;2022-08-19T01:19:35;8.50;;;6.50;;
54332;SDS011;40230;41.860;21.940;2022-08-19T01:22:03;7.30;;;5.80;;
54332;SDS011;40230;41.860;21.940;2022-08-19T01:24:31;8.07;;;6.07;;
54332;SDS011;40230;41.860;21.940;2022-08-19T01:26:58;6.70;;;6.00;;
54332;SDS011;40230;41.860;21.940;2022-08-19T01:29:24;6.38;;;5.18;;
54332;SDS011;40230;41.860;21.940;2022-08-19T01:31:50;8.27;;;5.72;;
54332;SDS011;40230;41.860;21.940;2022-08-19T01:34:17;7.80;;;5.85;;
54332;SDS011;40230;41.860;21.940;2022-08-19T01:36:44;6.45;;;5.82;;
54332;SDS011;40230;41.860;21.940;2022-08-19T01:39:13;6.93;;;6.20;;
54332;SDS011;40230;41.860;21.940;2022-08-19T01:41:41;7.30;;;6.20;;
54332;SDS011;40230;41.860;21.940;2022-08-19T01:44:08;6.65;;;5.75;;
54332;SDS011;40230;41.860;21.940;2022-08-19T01:46:34;7.10;;;6.38;;
54332;SDS011;40230;41.860;21.940;2022-08-19T01:49:01;9.10;;;6.43;;
54332;SDS011;40230;41.860;21.940;2022-08-19T01:51:27;6.65;;;5.68;;
54332;SDS011;40230;41.860;21.940;2022-08-19T01:53:53;9.07;;;6.38;;
54332;SDS011;40230;41.860;21.940;2022-08-19T01:56:20;6.20;;;5.70;;
54332;SDS011;40230;41.860;21.940;2022-08-19T02:01:30;6.13;;;5.55;;
54332;SDS011;40230;41.860;21.940;2022-08-19T02:04:00;5.85;;;5.25;;
54332;SDS011;40230;41.860;21.940;2022-08-19T02:06:26;5.85;;;5.35;;
54332;SDS011;40230;41.860;21.940;2022-08-19T02:08:52;5.85;;;5.25;;
54332;SDS011;40230;41.860;21.940;2022-08-19T02:11:26;5.90;;;5.32;;
54332;SDS011;40230;41.860;21.940;2022-08-19T02:13:53;4.95;;;4.45;;
54332;SDS011;40230;41.860;21.940;2022-08-19T02:16:20;5.25;;;4.75;;
54332;SDS011;40230;41.860;21.940;2022-08-19T02:18:46;7.47;;;5.22;;
54332;SDS011;40230;41.860;21.940;2022-08-19T02:21:32;5.32;;;4.82;;
54332;SDS011;40230;41.860;21.940;2022-08-19T02:23:58;7.50;;;5.28;;
54332;SDS011;40230;41.860;21.940;2022-08-19T02:26:25;6.80;;;5.43;;
54332;SDS011;40230;41.860;21.940;2022-08-19T02:28:51;5.95;;;5.45;;
54332;SDS011;40230;41.860;21.940;2022-08-19T02:31:19;5.63;;;5.03;;
54332;SDS011;40230;41.860;21.940;2022-08-19T02:33:46;7.28;;;5.25;;
54332;SDS011;40230;41.860;21.940;2022-08-19T02:36:12;6.80;;;5.85;;
54332;SDS011;40230;41.860;21.940;2022-08-19T02:38:39;5.53;;;5.00;;
54332;SDS011;40230;41.860;21.940;2022-08-19T02:41:06;5.88;;;5.20;;
54332;SDS011;40230;41.860;21.940;2022-08-19T02:43:35;5.85;;;5.13;;
54332;SDS011;40230;41.860;21.940;2022-08-19T02:46:10;6.10;;;5.60;;
54332;SDS011;40230;41.860;21.940;2022-08-19T02:48:36;5.90;;;5.30;;
54332;SDS011;40230;41.860;21.940;2022-08-19T02:51:03;5.30;;;4.82;;
54332;SDS011;40230;41.860;21.940;2022-08-19T02:53:30;7.35;;;6.65;;
54332;SDS011;40230;41.860;21.940;2022-08-19T02:55:56;8.65;;;6.30;;
54332;SDS011;40230;41.860;21.940;2022-08-19T02:58:22;5.95;;;5.45;;
54332;SDS011;40230;41.860;21.940;2022-08-19T03:00:50;7.85;;;5.68;;
54332;SDS011;40230;41.860;21.940;2022-08-19T03:03:17;7.50;;;5.72;;
54332;SDS011;40230;41.860;21.940;2022-08-19T03:05:44;6.90;;;5.70;;
54332;SDS011;40230;41.860;21.940;2022-08-19T03:08:10;5.78;;;5.28;;
54332;SDS011;40230;41.860;21.940;2022-08-19T03:10:44;5.90;;;5.40;;
54332;SDS011;40230;41.860;21.940;2022-08-19T03:13:14;6.35;;;5.05;;
54332;SDS011;40230;41.860;21.940;2022-08-19T03:15:45;7.07;;;5.78;;
54332;SDS011;40230;41.860;21.940;2022-08-19T03:18:11;7.05;;;5.50;;
54332;SDS011;40230;41.860;21.940;2022-08-19T03:23:22;6.20;;;5.47;;
54332;SDS011;40230;41.860;21.940;2022-08-19T03:25:49;12.27;;;6.68;;
54332;SDS011;40230;41.860;21.940;2022-08-19T03:28:15;6.65;;;5.68;;
54332;SDS011;40230;41.860;21.940;2022-08-19T03:30:43;6.95;;;5.80;;
54332;SDS011;40230;41.860;21.940;2022-08-19T03:33:10;7.50;;;5.72;;
54332;SDS011;40230;41.860;21.940;2022-08-19T03:35:39;7.50;;;6.03;;
54332;SDS011;40230;41.860;21.940;2022-08-19T03:38:05;8.05;;;5.95;;
54332;SDS011;40230;41.860;21.940;2022-08-19T03:40:32;8.73;;;6.60;;
54332;SDS011;40230;41.860;21.940;2022-08-19T03:43:00;8.05;;;5.95;;
54332;SDS011;40230;41.860;21.940;2022-08-19T03:45:26;9.18;;;6.72;;
54332;SDS011;40230;41.860;21.940;2022-08-19T03:47:52;9.82;;;6.07;;
54332;SDS011;40230;41.860;21.940;2022-08-19T03:50:19;8.60;;;6.07;;
54332;SDS011;40230;41.860;21.940;2022-08-19T03:52:49;13.43;;;7.15;;
54332;SDS011;40230;41.860;21.940;2022-08-19T03:55:15;12.38;;;7.68;;
54332;SDS011;40230;41.860;21.940;2022-08-19T03:57:41;8.98;;;6.75;;
54332;SDS011;40230;41.860;21.940;2022-08-19T04:00:08;8.35;;;6.20;;
54332;SDS011;40230;41.860;21.940;2022-08-19T04:02:35;9.63;;;7.40;;
54332;SDS011;40230;41.860;21.940;2022-08-19T04:05:01;22.60;;;14.82;;
54332;SDS011;40230;41.860;21.940;2022-08-19T04:07:27;23.38;;;14.93;;
54332;SDS011;40230;41.860;21.940;2022-08-19T04:09:53;17.27;;;13.35;;
54332;SDS011;40230;41.860;21.940;2022-08-19T04:12:19;22.90;;;14.50;;
54332;SDS011;40230;41.860;21.940;2022-08-19T04:14:45;21.30;;;14.52;;
54332;SDS011;40230;41.860;21.940;2022-08-19T04:17:11;21.55;;;13.30;;
54332;SDS011;40230;41.860;21.940;2022-08-19T04:19:39;20.70;;;13.60;;
54332;SDS011;40230;41.860;21.940;2022-08-19T04:22:06;18.42;;;12.32;;
54332;SDS011;40230;41.860;21.940;2022-08-19T04:24:34;19.25;;;12.20;;
54332;SDS011;40230;41.860;21.940;2022-08-19T04:27:01;15.75;;;12.23;;
54332;SDS011;40230;41.860;21.940;2022-08-19T04:29:27;16.65;;;11.35;;
54332;SDS011;40230;41.860;21.940;2022-08-19T04:31:55;17.02;;;11.52;;
54332;SDS011;40230;41.860;21.940;2022-08-19T04:34:22;12.88;;;10.65;;
54332;SDS011;40230;41.860;21.940;2022-08-19T04:36:49;17.38;;;11.63;;
54332;SDS011;40230;41.860;21.940;2022-08-19T04:39:19;18.20;;;12.35;;
54332;SDS011;40230;41.860;21.940;2022-08-19T04:41:46;20.98;;;12.52;;
54332;SDS011;40230;41.860;21.940;2022-08-19T04:44:31;23.67;;;13.50;;
54332;SDS011;40230;41.860;21.940;2022-08-19T04:46:58;15.05;;;12.23;;
54332;SDS011;40230;41.860;21.940;2022-08-19T04:49:24;15.65;;;11.27;;
54332;SDS011;40230;41.860;21.940;2022-08-19T04:51:51;16.48;;;10.50;;
54332;SDS011;40230;41.860;21.940;2022-08-19T04:54:19;10.48;;;9.13;;
54332;SDS011;40230;41.860;21.940;2022-08-19T04:56:48;14.02;;;9.60;;
54332;SDS011;40230;41.860;21.940;2022-08-19T04:59:15;14.45;;;9.63;;
54332;SDS011;40230;41.860;21.940;2022-08-19T05:01:42;10.27;;;8.38;;
54332;SDS011;40230;41.860;21.940;2022-08-19T05:04:09;13.35;;;9.15;;
54332;SDS011;40230;41.860;21.940;2022-08-19T05:06:36;12.13;;;8.60;;
54332;SDS011;40230;41.860;21.940;2022-08-19T05:09:02;9.77;;;8.15;;
54332;SDS011;40230;41.860;21.940;2022-08-19T05:11:31;12.00;;;8.18;;
54332;SDS011;40230;41.860;21.940;2022-08-19T05:13:57;14.90;;;8.35;;
54332;SDS011;40230;41.860;21.940;2022-08-19T05:16:24;14.27;;;10.23;;
54332;SDS011;40230;41.860;21.940;2022-08-19T05:18:50;12.60;;;9.73;;
54332;SDS011;40230;41.860;21.940;2022-08-19T05:21:36;15.15;;;9.50;;
54332;SDS011;40230;41.860;21.940;2022-08-19T05:24:22;14.32;;;9.52;;
54332;SDS011;40230;41.860;21.940;2022-08-19T05:26:50;13.98;;;10.90;;
54332;SDS011;40230;41.860;21.940;2022-08-19T05:29:18;16.08;;;9.05;;
54332;SDS011;40230;41.860;21.940;2022-08-19T05:31:44;12.32;;;8.45;;
54332;SDS011;40230;41.860;21.940;2022-08-19T05:34:11;9.38;;;8.38;;
54332;SDS011;40230;41.860;21.940;2022-08-19T05:36:39;13.23;;;9.05;;
54332;SDS011;40230;41.860;21.940;2022-08-19T05:39:07;9.95;;;8.13;;
54332;SDS011;40230;41.860;21.940;2022-08-19T05:41:34;8.82;;;7.03;;
54332;SDS011;40230;41.860;21.940;2022-08-19T05:44:01;7.90;;;6.15;;
54332;SDS011;40230;41.860;21.940;2022-08-19T05:46:28;9.27;;;7.93;;
54332;SDS011;40230;41.860;21.940;2022-08-19T05:48:54;9.02;;;8.05;;
54332;SDS011;40230;41.860;21.940;2022-08-19T05:51:21;23.50;;;13.00;;
54332;SDS011;40230;41.860;21.940;2022-08-19T05:53:48;67.60;;;29.25;;
54332;SDS011;40230;41.860;21.940;2022-08-19T05:56:15;129.88;;;54.05;;
54332;SDS011;40230;41.860;21.940;2022-08-19T05:58:41;82.47;;;37.03;;
54332;SDS011;40230;41.860;21.940;2022-08-19T06:01:10;23.50;;;12.27;;
54332;SDS011;40230;41.860;21.940;2022-08-19T06:03:37;38.85;;;19.02;;
54332;SDS011;40230;41.860;21.940;2022-08-19T06:06:04;29.45;;;15.07;;
54332;SDS011;40230;41.860;21.940;2022-08-19T06:08:31;17.75;;;11.05;;
54332;SDS011;40230;41.860;21.940;2022-08-19T06:10:58;27.27;;;19.20;;
54332;SDS011;40230;41.860;21.940;2022-08-19T06:13:36;25.67;;;16.55;;
54332;SDS011;40230;41.860;21.940;2022-08-19T06:16:03;82.25;;;48.65;;
54332;SDS011;40230;41.860;21.940;2022-08-19T06:18:32;25.67;;;18.67;;
54332;SDS011;40230;41.860;21.940;2022-08-19T06:20:58;17.20;;;12.43;;
54332;SDS011;40230;41.860;21.940;2022-08-19T06:23:28;13.60;;;10.57;;
54332;SDS011;40230;41.860;21.940;2022-08-19T06:25:54;9.50;;;7.93;;
54332;SDS011;40230;41.860;21.940;2022-08-19T06:28:20;10.60;;;8.20;;
54332;SDS011;40230;41.860;21.940;2022-08-19T06:30:49;10.05;;;8.65;;
54332;SDS011;40230;41.860;21.940;2022-08-19T06:33:16;18.45;;;14.90;;
54332;SDS011;40230;41.860;21.940;2022-08-19T06:35:42;14.45;;;12.13;;
54332;SDS011;40230;41.860;21.940;2022-08-19T06:38:08;13.05;;;11.73;;
54332;SDS011;40230;41.860;21.940;2022-08-19T06:40:35;18.77;;;13.32;;
54332;SDS011;40230;41.860;21.940;2022-08-19T06:43:03;15.70;;;13.65;;
54332;SDS011;40230;41.860;21.940;2022-08-19T06:45:29;13.45;;;11.80;;
54332;SDS011;40230;41.860;21.940;2022-08-19T06:47:55;15.50;;;13.98;;
54332;SDS011;40230;41.860;21.940;2022-08-19T06:50:22;15.02;;;12.88;;
54332;SDS011;40230;41.860;21.940;2022-08-19T06:52:49;15.63;;;13.90;;
54332;SDS011;40230;41.860;21.940;2022-08-19T06:55:15;12.43;;;10.65;;
54332;SDS011;40230;41.860;21.940;2022-08-19T06:57:42;11.52;;;10.32;;
54332;SDS011;40230;41.860;21.940;2022-08-19T07:00:10;9.68;;;8.55;;
54332;SDS011;40230;41.860;21.940;2022-08-19T07:02:38;11.63;;;10.10;;
54332;SDS011;40230;41.860;21.940;2022-08-19T07:05:04;15.30;;;13.75;;
54332;SDS011;40230;41.860;21.940;2022-08-19T07:07:30;11.13;;;9.85;;
54332;SDS011;40230;41.860;21.940;2022-08-19T07:09:56;11.63;;;9.63;;
54332;SDS011;40230;41.860;21.940;2022-08-19T07:12:22;12.98;;;9.60;;
54332;SDS011;40230;41.860;21.940;2022-08-19T07:14:49;16.17;;;11.93;;
54332;SDS011;40230;41.860;21.940;2022-08-19T07:17:15;15.95;;;12.60;;
54332;SDS011;40230;41.860;21.940;2022-08-19T07:19:41;37.25;;;29.50;;
54332;SDS011;40230;41.860;21.940;2022-08-19T07:22:08;122.00;;;71.03;;
54332;SDS011;40230;41.860;21.940;2022-08-19T07:24:35;57.03;;;30.08;;
54332;SDS011;40230;41.860;21.940;2022-08-19T07:27:03;92.50;;;45.13;;
54332;SDS011;40230;41.860;21.940;2022-08-19T07:29:31;60.00;;;30.27;;
54332;SDS011;40230;41.860;21.940;2022-08-19T07:31:58;47.85;;;25.02;;
54332;SDS011;40230;41.860;21.940;2022-08-19T07:34:25;35.65;;;17.17;;
54332;SDS011;40230;41.860;21.940;2022-08-19T07:36:51;21.80;;;13.00;;
54332;SDS011;40230;41.860;21.940;2022-08-19T07:39:19;15.25;;;9.55;;
54332;SDS011;40230;41.860;21.940;2022-08-19T07:41:46;14.60;;;9.23;;
54332;SDS011;40230;41.860;21.940;2022-08-19T07:44:12;17.02;;;15.18;;
54332;SDS011;40230;41.860;21.940;2022-08-19T07:46:40;25.42;;;16.05;;
54332;SDS011;40230;41.860;21.940;2022-08-19T07:49:07;78.40;;;33.95;;
54332;SDS011;40230;41.860;21.940;2022-08-19T07:51:38;32.65;;;17.67;;
54332;SDS011;40230;41.860;21.940;2022-08-19T07:54:04;28.98;;;19.95;;
54332;SDS011;40230;41.860;21.940;2022-08-19T07:56:30;41.65;;;30.30;;
54332;SDS011;40230;41.860;21.940;2022-08-19T07:58:57;22.65;;;16.55;;
54332;SDS011;40230;41.860;21.940;2022-08-19T08:01:24;29.23;;;18.73;;
54332;SDS011;40230;41.860;21.940;2022-08-19T08:03:51;21.83;;;18.73;;
54332;SDS011;40230;41.860;21.940;2022-08-19T08:06:36;10.00;;;8.80;;
54332;SDS011;40230;41.860;21.940;2022-08-19T08:12:14;19.63;;;13.65;;
54332;SDS011;40230;41.860;21.940;2022-08-19T08:17:07;14.05;;;11.52;;
54332;SDS011;40230;41.860;21.940;2022-08-19T08:19:33;15.88;;;14.35;;
54332;SDS011;40230;41.860;21.940;2022-08-19T08:22:00;12.68;;;9.95;;
54332;SDS011;40230;41.860;21.940;2022-08-19T08:24:28;8.25;;;6.57;;
54332;SDS011;40230;41.860;21.940;2022-08-19T08:26:55;9.45;;;7.43;;
54332;SDS011;40230;41.860;21.940;2022-08-19T08:29:22;7.00;;;6.28;;
54332;SDS011;40230;41.860;21.940;2022-08-19T08:31:48;10.55;;;7.32;;
54332;SDS011;40230;41.860;21.940;2022-08-19T08:34:15;9.32;;;6.03;;
54332;SDS011;40230;41.860;21.940;2022-08-19T08:36:42;7.35;;;6.20;;
54332;SDS011;40230;41.860;21.940;2022-08-19T08:39:10;9.98;;;8.15;;
54332;SDS011;40230;41.860;21.940;2022-08-19T08:47:03;5.63;;;5.10;;
54332;SDS011;40230;41.860;21.940;2022-08-19T08:52:24;6.70;;;5.13;;
54332;SDS011;40230;41.860;21.940;2022-08-19T08:54:54;7.35;;;4.95;;
54332;SDS011;40230;41.860;21.940;2022-08-19T08:59:54;6.90;;;5.10;;
54332;SDS011;40230;41.860;21.940;2022-08-19T09:02:22;6.15;;;5.55;;
54332;SDS011;40230;41.860;21.940;2022-08-19T09:04:49;12.60;;;5.72;;
54332;SDS011;40230;41.860;21.940;2022-08-19T09:09:55;9.02;;;8.13;;
54332;SDS011;40230;41.860;21.940;2022-08-19T09:17:34;6.53;;;5.50;;
54332;SDS011;40230;41.860;21.940;2022-08-19T09:22:32;5.72;;;5.00;;
54332;SDS011;40230;41.860;21.940;2022-08-19T09:24:58;6.15;;;5.40;;
54332;SDS011;40230;41.860;21.940;2022-08-19T09:27:25;7.97;;;6.53;;
54332;SDS011;40230;41.860;21.940;2022-08-19T09:29:51;17.90;;;9.10;;
54332;SDS011;40230;41.860;21.940;2022-08-19T09:32:19;14.88;;;8.45;;
54332;SDS011;40230;41.860;21.940;2022-08-19T09:34:45;8.15;;;6.32;;
54332;SDS011;40230;41.860;21.940;2022-08-19T09:37:11;13.52;;;9.25;;
54332;SDS011;40230;41.860;21.940;2022-08-19T09:39:41;16.13;;;10.75;;
54332;SDS011;40230;41.860;21.940;2022-08-19T09:42:07;6.40;;;5.47;;
54332;SDS011;40230;41.860;21.940;2022-08-19T09:44:39;21.60;;;11.57;;
54332;SDS011;40230;41.860;21.940;2022-08-19T09:47:05;11.85;;;8.77;;
54332;SDS011;40230;41.860;21.940;2022-08-19T09:49:32;7.40;;;5.25;;
54332;SDS011;40230;41.860;21.940;2022-08-19T09:51:58;5.50;;;5.00;;
54332;SDS011;40230;41.860;21.940;2022-08-19T09:54:25;5.45;;;4.63;;
54332;SDS011;40230;41.860;21.940;2022-08-19T09:56:54;7.65;;;5.40;;
54332;SDS011;40230;41.860;21.940;2022-08-19T09:59:21;6.35;;;4.72;;
54332;SDS011;40230;41.860;21.940;2022-08-19T10:01:48;4.82;;;4.40;;
54332;SDS011;40230;41.860;21.940;2022-08-19T10:04:14;6.60;;;4.57;;
54332;SDS011;40230;41.860;21.940;2022-08-19T10:06:40;5.82;;;5.22;;
54332;SDS011;40230;41.860;21.940;2022-08-19T10:09:07;8.40;;;4.82;;
54332;SDS011;40230;41.860;21.940;2022-08-19T10:11:35;5.78;;;4.47;;
54332;SDS011;40230;41.860;21.940;2022-08-19T10:14:03;5.10;;;3.90;;
54332;SDS011;40230;41.860;21.940;2022-08-19T10:16:30;5.22;;;4.72;;
54332;SDS011;40230;41.860;21.940;2022-08-19T10:18:57;4.97;;;4.40;;
54332;SDS011;40230;41.860;21.940;2022-08-19T10:21:25;11.98;;;10.25;;
54332;SDS011;40230;41.860;21.940;2022-08-19T10:23:53;7.53;;;6.93;;
54332;SDS011;40230;41.860;21.940;2022-08-19T10:26:22;5.50;;;4.97;;
54332;SDS011;40230;41.860;21.940;2022-08-19T10:28:49;11.20;;;5.43;;
54332;SDS011;40230;41.860;21.940;2022-08-19T10:31:17;14.93;;;13.40;;
54332;SDS011;40230;41.860;21.940;2022-08-19T10:33:44;5.75;;;5.25;;
54332;SDS011;40230;41.860;21.940;2022-08-19T10:38:57;4.10;;;3.72;;
54332;SDS011;40230;41.860;21.940;2022-08-19T10:41:27;6.25;;;5.65;;
54332;SDS011;40230;41.860;21.940;2022-08-19T10:43:54;6.50;;;5.90;;
54332;SDS011;40230;41.860;21.940;2022-08-19T10:46:22;4.65;;;4.22;;
54332;SDS011;40230;41.860;21.940;2022-08-19T10:48:49;4.90;;;4.03;;
54332;SDS011;40230;41.860;21.940;2022-08-19T10:51:15;6.97;;;4.82;;
54332;SDS011;40230;41.860;21.940;2022-08-19T10:54:00;8.85;;;6.90;;
54332;SDS011;40230;41.860;21.940;2022-08-19T10:56:27;11.75;;;7.18;;
54332;SDS011;40230;41.860;21.940;2022-08-19T10:59:13;5.65;;;4.65;;
54332;SDS011;40230;41.860;21.940;2022-08-19T11:01:39;5.30;;;4.80;;
54332;SDS011;40230;41.860;21.940;2022-08-19T11:04:05;9.13;;;7.28;;
54332;SDS011;40230;41.860;21.940;2022-08-19T11:06:35;14.73;;;13.60;;
54332;SDS011;40230;41.860;21.940;2022-08-19T11:09:01;10.57;;;9.57;;
54332;SDS011;40230;41.860;21.940;2022-08-19T11:11:27;6.40;;;4.30;;
54332;SDS011;40230;41.860;21.940;2022-08-19T11:13:53;7.45;;;5.18;;
54332;SDS011;40230;41.860;21.940;2022-08-19T11:16:21;5.10;;;4.32;;
54332;SDS011;40230;41.860;21.940;2022-08-19T11:18:52;5.07;;;4.07;;
54332;SDS011;40230;41.860;21.940;2022-08-19T11:21:21;10.48;;;7.65;;
54332;SDS011;40230;41.860;21.940;2022-08-19T11:23:49;7.15;;;4.82;;
54332;SDS011;40230;41.860;21.940;2022-08-19T11:26:17;13.18;;;8.65;;
54332;SDS011;40230;41.860;21.940;2022-08-19T11:28:43;10.10;;;7.22;;
54332;SDS011;40230;41.860;21.940;2022-08-19T11:31:10;8.27;;;6.28;;
54332;SDS011;40230;41.860;21.940;2022-08-19T11:33:37;13.63;;;6.60;;
54332;SDS011;40230;41.860;21.940;2022-08-19T11:36:03;7.70;;;6.28;;
54332;SDS011;40230;41.860;21.940;2022-08-19T11:38:29;6.57;;;5.38;;
54332;SDS011;40230;41.860;21.940;2022-08-19T11:40:57;6.07;;;3.80;;
54332;SDS011;40230;41.860;21.940;2022-08-19T11:43:23;7.20;;;4.88;;
54332;SDS011;40230;41.860;21.940;2022-08-19T11:45:49;17.02;;;7.60;;
54332;SDS011;40230;41.860;21.940;2022-08-19T11:48:19;8.73;;;5.10;;
54332;SDS011;40230;41.860;21.940;2022-08-19T11:50:51;5.55;;;4.00;;
54332;SDS011;40230;41.860;21.940;2022-08-19T11:53:19;6.18;;;3.90;;
54332;SDS011;40230;41.860;21.940;2022-08-19T11:55:46;5.97;;;3.50;;
54332;SDS011;40230;41.860;21.940;2022-08-19T11:58:13;5.88;;;4.38;;
54332;SDS011;40230;41.860;21.940;2022-08-19T12:00:40;4.50;;;3.22;;
54332;SDS011;40230;41.860;21.940;2022-08-19T12:03:06;5.30;;;3.53;;
54332;SDS011;40230;41.860;21.940;2022-08-19T12:05:33;9.05;;;4.90;;
54332;SDS011;40230;41.860;21.940;2022-08-19T12:07:59;9.10;;;5.45;;
54332;SDS011;40230;41.860;21.940;2022-08-19T12:10:25;8.00;;;7.20;;
54332;SDS011;40230;41.860;21.940;2022-08-19T12:12:51;28.02;;;25.52;;
54332;SDS011;40230;41.860;21.940;2022-08-19T12:15:17;10.75;;;8.68;;
54332;SDS011;40230;41.860;21.940;2022-08-19T12:17:43;10.23;;;9.32;;
54332;SDS011;40230;41.860;21.940;2022-08-19T12:20:10;6.28;;;5.18;;
54332;SDS011;40230;41.860;21.940;2022-08-19T12:22:37;5.68;;;4.50;;
54332;SDS011;40230;41.860;21.940;2022-08-19T12:25:04;6.80;;;5.15;;
54332;SDS011;40230;41.860;21.940;2022-08-19T12:27:31;6.10;;;4.43;;
54332;SDS011;40230;41.860;21.940;2022-08-19T12:29:57;5.80;;;4.78;;
54332;SDS011;40230;41.860;21.940;2022-08-19T12:32:25;5.28;;;3.85;;
54332;SDS011;40230;41.860;21.940;2022-08-19T12:34:51;5.85;;;4.75;;
54332;SDS011;40230;41.860;21.940;2022-08-19T12:37:17;7.43;;;6.13;;
54332;SDS011;40230;41.860;21.940;2022-08-19T12:39:43;6.90;;;4.50;;
54332;SDS011;40230;41.860;21.940;2022-08-19T12:42:10;5.18;;;3.63;;
54332;SDS011;40230;41.860;21.940;2022-08-19T12:44:37;6.25;;;4.38;;
54332;SDS011;40230;41.860;21.940;2022-08-19T12:47:08;23.85;;;21.50;;
54332;SDS011;40230;41.860;21.940;2022-08-19T12:49:34;6.82;;;6.00;;
54332;SDS011;40230;41.860;21.940;2022-08-19T12:52:02;5.65;;;4.28;;
54332;SDS011;40230;41.860;21.940;2022-08-19T12:54:29;9.77;;;7.40;;
54332;SDS011;40230;41.860;21.940;2022-08-19T12:56:56;68.93;;;62.83;;
54332;SDS011;40230;41.860;21.940;2022-08-19T12:59:22;8.35;;;7.22;;
54332;SDS011;40230;41.860;21.940;2022-08-19T13:01:48;5.43;;;4.10;;
54332;SDS011;40230;41.860;21.940;2022-08-19T13:04:14;6.97;;;4.10;;
54332;SDS011;40230;41.860;21.940;2022-08-19T13:06:41;4.78;;;3.15;;
54332;SDS011;40230;41.860;21.940;2022-08-19T13:09:07;5.70;;;3.60;;
54332;SDS011;40230;41.860;21.940;2022-08-19T13:11:34;5.82;;;3.80;;
54332;SDS011;40230;41.860;21.940;2022-08-19T13:14:00;5.50;;;3.58;;
54332;SDS011;40230;41.860;21.940;2022-08-19T13:16:27;3.85;;;3.30;;
54332;SDS011;40230;41.860;21.940;2022-08-19T13:18:53;6.72;;;3.65;;
54332;SDS011;40230;41.860;21.940;2022-08-19T13:21:21;4.25;;;3.33;;
54332;SDS011;40230;41.860;21.940;2022-08-19T13:23:48;7.57;;;3.20;;
54332;SDS011;40230;41.860;21.940;2022-08-19T13:26:15;4.50;;;3.10;;
54332;SDS011;40230;41.860;21.940;2022-08-19T13:28:41;6.50;;;3.75;;
54332;SDS011;40230;41.860;21.940;2022-08-19T13:31:27;5.93;;;4.15;;
54332;SDS011;40230;41.860;21.940;2022-08-19T13:34:12;5.72;;;4.25;;
54332;SDS011;40230;41.860;21.940;2022-08-19T13:36:38;9.23;;;4.30;;
54332;SDS011;40230;41.860;21.940;2022-08-19T13:39:05;6.30;;;3.50;;
54332;SDS011;40230;41.860;21.940;2022-08-19T13:41:32;5.10;;;3.75;;
54332;SDS011;40230;41.860;21.940;2022-08-19T13:43:59;6.43;;;3.92;;
54332;SDS011;40230;41.860;21.940;2022-08-19T13:46:26;6.50;;;3.42;;
54332;SDS011;40230;41.860;21.940;2022-08-19T13:48:54;5.55;;;3.67;;
54332;SDS011;40230;41.860;21.940;2022-08-19T13:51:21;8.18;;;4.30;;
54332;SDS011;40230;41.860;21.940;2022-08-19T13:53:47;6.90;;;3.65;;
54332;SDS011;40230;41.860;21.940;2022-08-19T13:56:15;6.47;;;3.53;;
54332;SDS011;40230;41.860;21.940;2022-08-19T13:58:42;7.05;;;3.75;;
54332;SDS011;40230;41.860;21.940;2022-08-19T14:01:08;8.57;;;4.13;;
54332;SDS011;40230;41.860;21.940;2022-08-19T14:03:34;9.65;;;3.70;;
54332;SDS011;40230;41.860;21.940;2022-08-19T14:06:01;7.10;;;3.72;;
54332;SDS011;40230;41.860;21.940;2022-08-19T14:08:27;6.32;;;3.47;;
54332;SDS011;40230;41.860;21.940;2022-08-19T14:10:57;5.82;;;3.67;;
54332;SDS011;40230;41.860;21.940;2022-08-19T14:13:23;6.97;;;3.80;;
54332;SDS011;40230;41.860;21.940;2022-08-19T14:15:49;10.68;;;3.80;;
54332;SDS011;40230;41.860;21.940;2022-08-19T14:18:16;4.50;;;3.10;;
54332;SDS011;40230;41.860;21.940;2022-08-19T14:20:43;3.88;;;3.08;;
54332;SDS011;40230;41.860;21.940;2022-08-19T14:23:09;8.45;;;3.58;;
54332;SDS011;40230;41.860;21.940;2022-08-19T14:25:37;7.38;;;3.83;;
54332;SDS011;40230;41.860;21.940;2022-08-19T14:28:03;8.23;;;3.75;;
54332;SDS011;40230;41.860;21.940;2022-08-19T14:30:30;7.13;;;3.92;;
54332;SDS011;40230;41.860;21.940;2022-08-19T14:32:58;7.28;;;3.83;;
54332;SDS011;40230;41.860;21.940;2022-08-19T14:35:25;6.72;;;3.38;;
54332;SDS011;40230;41.860;21.940;2022-08-19T14:37:52;10.43;;;4.00;;
54332;SDS011;40230;41.860;21.940;2022-08-19T14:40:20;9.30;;;3.70;;
54332;SDS011;40230;41.860;21.940;2022-08-19T14:42:50;4.47;;;3.17;;
54332;SDS011;40230;41.860;21.940;2022-08-19T14:45:17;6.38;;;3.60;;
54332;SDS011;40230;41.860;21.940;2022-08-19T14:47:43;7.22;;;3.72;;
54332;SDS011;40230;41.860;21.940;2022-08-19T14:50:10;5.43;;;3.15;;
54332;SDS011;40230;41.860;21.940;2022-08-19T14:52:37;7.72;;;4.07;;
54332;SDS011;40230;41.860;21.940;2022-08-19T14:55:04;6.13;;;3.22;;
54332;SDS011;40230;41.860;21.940;2022-08-19T14:57:30;8.57;;;3.97;;
54332;SDS011;40230;41.860;21.940;2022-08-19T14:59:56;4.18;;;3.13;;
54332;SDS011;40230;41.860;21.940;2022-08-19T15:02:23;8.82;;;3.55;;